sensor_id;sensor_type;location;lat;lon;timestamp;pressure;altitude;pressure_sealevel;temperature;humidity
74544;BME280;63016;55.030;38.710;2024-01-15T00:01:44;98215.69;;;-7.29;61.93
74544;BME280;63016;55.030;38.710;2024-01-15T00:04:09;98218.13;;;-7.28;61.73
74544;BME280;63016;55.030;38.710;2024-01-15T00:06:34;98215.59;;;-7.28;61.70
74544;BME280;63016;55.030;38.710;2024-01-15T00:09:00;98211.34;;;-7.27;61.88
74544;BME280;63016;55.030;38.710;2024-01-15T00:11:25;98212.97;;;-7.26;61.89
74544;BME280;63016;55.030;38.710;2024-01-15T00:13:51;98206.16;;;-7.26;62.09
74544;BME280;63016;55.030;38.710;2024-01-15T00:16:17;98210.25;;;-7.23;62.33
74544;BME280;63016;55.030;38.710;2024-01-15T00:18:42;98211.56;;;-7.17;62.28
74544;BME280;63016;55.030;38.710;2024-01-15T00:21:07;98207.94;;;-7.13;62.04
74544;BME280;63016;55.030;38.710;2024-01-15T00:23:33;98212.00;;;-7.11;62.20
74544;BME280;63016;55.030;38.710;2024-01-15T00:25:58;98209.38;;;-7.09;62.39
74544;BME280;63016;55.030;38.710;2024-01-15T00:28:23;98208.38;;;-7.07;62.26
74544;BME280;63016;55.030;38.710;2024-01-15T00:30:48;98205.66;;;-7.04;62.17
74544;BME280;63016;55.030;38.710;2024-01-15T00:33:14;98206.34;;;-7.02;62.10
74544;BME280;63016;55.030;38.710;2024-01-15T00:35:39;98197.75;;;-6.99;61.96
74544;BME280;63016;55.030;38.710;2024-01-15T00:38:05;98196.03;;;-6.99;62.15
74544;BME280;63016;55.030;38.710;2024-01-15T00:40:30;98189.06;;;-6.95;62.34
74544;BME280;63016;55.030;38.710;2024-01-15T00:42:55;98194.00;;;-6.93;61.97
74544;BME280;63016;55.030;38.710;2024-01-15T00:45:21;98191.47;;;-6.93;62.49
74544;BME280;63016;55.030;38.710;2024-01-15T00:47:46;98177.81;;;-6.91;62.27
74544;BME280;63016;55.030;38.710;2024-01-15T00:50:12;98178.31;;;-6.86;62.33
74544;BME280;63016;55.030;38.710;2024-01-15T00:52:37;98183.19;;;-6.83;62.12
74544;BME280;63016;55.030;38.710;2024-01-15T00:55:02;98176.38;;;-6.82;62.30
74544;BME280;63016;55.030;38.710;2024-01-15T00:57:28;98177.13;;;-6.80;62.32
74544;BME280;63016;55.030;38.710;2024-01-15T00:59:53;98176.00;;;-6.76;62.35
74544;BME280;63016;55.030;38.710;2024-01-15T01:02:19;98171.81;;;-6.77;62.06
74544;BME280;63016;55.030;38.710;2024-01-15T01:04:44;98175.19;;;-6.77;61.94
74544;BME280;63016;55.030;38.710;2024-01-15T01:07:09;98165.94;;;-6.78;62.16
74544;BME280;63016;55.030;38.710;2024-01-15T01:09:35;98165.06;;;-6.77;62.18
74544;BME280;63016;55.030;38.710;2024-01-15T01:12:00;98165.66;;;-6.73;62.32
74544;BME280;63016;55.030;38.710;2024-01-15T01:14:25;98164.66;;;-6.70;62.46
74544;BME280;63016;55.030;38.710;2024-01-15T01:16:51;98167.81;;;-6.67;62.16
74544;BME280;63016;55.030;38.710;2024-01-15T01:19:16;98160.91;;;-6.65;62.25
74544;BME280;63016;55.030;38.710;2024-01-15T01:21:41;98154.91;;;-6.64;61.99
74544;BME280;63016;55.030;38.710;2024-01-15T01:24:07;98154.78;;;-6.62;62.31
74544;BME280;63016;55.030;38.710;2024-01-15T01:26:32;98150.56;;;-6.62;62.41
74544;BME280;63016;55.030;38.710;2024-01-15T01:28:58;98151.25;;;-6.60;62.13
74544;BME280;63016;55.030;38.710;2024-01-15T01:31:24;98147.81;;;-6.59;62.47
74544;BME280;63016;55.030;38.710;2024-01-15T01:33:49;98141.72;;;-6.56;62.48
74544;BME280;63016;55.030;38.710;2024-01-15T01:36:15;98135.53;;;-6.52;62.30
74544;BME280;63016;55.030;38.710;2024-01-15T01:38:40;98137.06;;;-6.50;62.53
74544;BME280;63016;55.030;38.710;2024-01-15T01:41:06;98136.06;;;-6.47;62.32
74544;BME280;63016;55.030;38.710;2024-01-15T01:43:31;98136.75;;;-6.45;62.36
74544;BME280;63016;55.030;38.710;2024-01-15T01:45:57;98132.41;;;-6.43;62.62
74544;BME280;63016;55.030;38.710;2024-01-15T01:48:24;98120.28;;;-6.39;62.51
74544;BME280;63016;55.030;38.710;2024-01-15T01:50:50;98123.56;;;-6.37;62.63
74544;BME280;63016;55.030;38.710;2024-01-15T01:53:16;98114.00;;;-6.34;62.63
74544;BME280;63016;55.030;38.710;2024-01-15T01:55:41;98119.00;;;-6.32;61.73
74544;BME280;63016;55.030;38.710;2024-01-15T01:58:07;98121.53;;;-6.32;62.41
74544;BME280;63016;55.030;38.710;2024-01-15T02:00:32;98110.44;;;-6.31;62.58
74544;BME280;63016;55.030;38.710;2024-01-15T02:02:59;98112.88;;;-6.30;62.56
74544;BME280;63016;55.030;38.710;2024-01-15T02:05:24;98113.50;;;-6.26;62.72
74544;BME280;63016;55.030;38.710;2024-01-15T02:07:50;98109.84;;;-6.22;62.66
74544;BME280;63016;55.030;38.710;2024-01-15T02:10:16;98118.94;;;-6.19;62.58
74544;BME280;63016;55.030;38.710;2024-01-15T02:12:42;98108.72;;;-6.18;62.64
74544;BME280;63016;55.030;38.710;2024-01-15T02:15:07;98116.09;;;-6.15;62.61
74544;BME280;63016;55.030;38.710;2024-01-15T02:17:32;98111.63;;;-6.11;62.60
74544;BME280;63016;55.030;38.710;2024-01-15T02:19:58;98106.34;;;-6.08;62.58
74544;BME280;63016;55.030;38.710;2024-01-15T02:22:23;98098.63;;;-6.07;62.62
74544;BME280;63016;55.030;38.710;2024-01-15T02:24:48;98097.63;;;-6.04;62.83
74544;BME280;63016;55.030;38.710;2024-01-15T02:27:14;98089.66;;;-6.00;62.88
74544;BME280;63016;55.030;38.710;2024-01-15T02:29:39;98092.72;;;-5.94;62.80
74544;BME280;63016;55.030;38.710;2024-01-15T02:32:06;98095.16;;;-5.93;62.53
74544;BME280;63016;55.030;38.710;2024-01-15T02:34:34;98089.81;;;-5.90;62.66
74544;BME280;63016;55.030;38.710;2024-01-15T02:37:00;98088.78;;;-5.87;62.57
74544;BME280;63016;55.030;38.710;2024-01-15T02:39:25;98091.22;;;-5.86;62.65
74544;BME280;63016;55.030;38.710;2024-01-15T02:41:50;98091.81;;;-5.82;62.79
74544;BME280;63016;55.030;38.710;2024-01-15T02:44:16;98092.50;;;-5.80;62.71
74544;BME280;63016;55.030;38.710;2024-01-15T02:46:41;98090.69;;;-5.78;62.59
74544;BME280;63016;55.030;38.710;2024-01-15T02:49:07;98095.66;;;-5.77;62.81
74544;BME280;63016;55.030;38.710;2024-01-15T02:51:32;98091.28;;;-5.75;62.75
74544;BME280;63016;55.030;38.710;2024-01-15T02:53:57;98087.72;;;-5.72;62.43
74544;BME280;63016;55.030;38.710;2024-01-15T02:56:23;98082.44;;;-5.69;62.85
74544;BME280;63016;55.030;38.710;2024-01-15T02:58:48;98084.84;;;-5.68;62.85
74544;BME280;63016;55.030;38.710;2024-01-15T03:01:13;98088.81;;;-5.63;62.96
74544;BME280;63016;55.030;38.710;2024-01-15T03:03:39;98080.97;;;-5.60;62.76
74544;BME280;63016;55.030;38.710;2024-01-15T03:06:05;98080.84;;;-5.59;62.38
74544;BME280;63016;55.030;38.710;2024-01-15T03:08:30;98073.34;;;-5.60;62.59
74544;BME280;63016;55.030;38.710;2024-01-15T03:10:55;98068.16;;;-5.59;62.47
74544;BME280;63016;55.030;38.710;2024-01-15T03:13:21;98070.69;;;-5.59;62.61
74544;BME280;63016;55.030;38.710;2024-01-15T03:15:46;98068.03;;;-5.57;62.71
74544;BME280;63016;55.030;38.710;2024-01-15T03:18:12;98080.66;;;-5.56;62.67
74544;BME280;63016;55.030;38.710;2024-01-15T03:20:37;98064.47;;;-5.55;62.98
74544;BME280;63016;55.030;38.710;2024-01-15T03:23:02;98087.09;;;-5.52;62.79
74544;BME280;63016;55.030;38.710;2024-01-15T03:25:28;98067.59;;;-5.51;63.02
74544;BME280;63016;55.030;38.710;2024-01-15T03:27:53;98067.50;;;-5.50;62.97
74544;BME280;63016;55.030;38.710;2024-01-15T03:30:18;98063.91;;;-5.47;62.79
74544;BME280;63016;55.030;38.710;2024-01-15T03:32:44;98071.34;;;-5.44;62.85
74544;BME280;63016;55.030;38.710;2024-01-15T03:35:09;98074.47;;;-5.40;63.01
74544;BME280;63016;55.030;38.710;2024-01-15T03:37:34;98068.34;;;-5.38;62.93
74544;BME280;63016;55.030;38.710;2024-01-15T03:40:00;98076.56;;;-5.34;62.95
74544;BME280;63016;55.030;38.710;2024-01-15T03:42:26;98071.28;;;-5.31;63.04
74544;BME280;63016;55.030;38.710;2024-01-15T03:44:51;98070.09;;;-5.27;63.25
74544;BME280;63016;55.030;38.710;2024-01-15T03:47:16;98071.63;;;-5.25;63.05
74544;BME280;63016;55.030;38.710;2024-01-15T03:49:42;98062.16;;;-5.23;63.07
74544;BME280;63016;55.030;38.710;2024-01-15T03:52:07;98061.94;;;-5.20;62.92
74544;BME280;63016;55.030;38.710;2024-01-15T03:54:32;98062.53;;;-5.16;62.93
74544;BME280;63016;55.030;38.710;2024-01-15T03:56:58;98061.59;;;-5.15;62.95
74544;BME280;63016;55.030;38.710;2024-01-15T03:59:23;98065.66;;;-5.12;63.25
74544;BME280;63016;55.030;38.710;2024-01-15T04:01:49;98057.09;;;-5.11;63.09
74544;BME280;63016;55.030;38.710;2024-01-15T04:04:17;98061.06;;;-5.07;63.13
74544;BME280;63016;55.030;38.710;2024-01-15T04:06:43;98057.47;;;-5.05;63.09
74544;BME280;63016;55.030;38.710;2024-01-15T04:09:08;98056.44;;;-5.02;63.00
74544;BME280;63016;55.030;38.710;2024-01-15T04:11:33;98056.31;;;-5.01;63.12
74544;BME280;63016;55.030;38.710;2024-01-15T04:13:59;98058.66;;;-4.98;63.15
74544;BME280;63016;55.030;38.710;2024-01-15T04:16:24;98062.81;;;-4.97;63.18
74544;BME280;63016;55.030;38.710;2024-01-15T04:18:50;98060.00;;;-4.94;62.96
74544;BME280;63016;55.030;38.710;2024-01-15T04:21:16;98062.34;;;-4.91;63.15
74544;BME280;63016;55.030;38.710;2024-01-15T04:23:42;98060.47;;;-4.88;63.08
74544;BME280;63016;55.030;38.710;2024-01-15T04:26:07;98057.72;;;-4.85;63.34
74544;BME280;63016;55.030;38.710;2024-01-15T04:28:33;98066.75;;;-4.81;63.00
74544;BME280;63016;55.030;38.710;2024-01-15T04:30:58;98064.00;;;-4.78;63.29
74544;BME280;63016;55.030;38.710;2024-01-15T04:33:23;98057.84;;;-4.76;63.28
74544;BME280;63016;55.030;38.710;2024-01-15T04:35:49;98062.81;;;-4.74;63.02
74544;BME280;63016;55.030;38.710;2024-01-15T04:38:14;98057.63;;;-4.73;63.29
74544;BME280;63016;55.030;38.710;2024-01-15T04:40:39;98056.56;;;-4.70;63.32
74544;BME280;63016;55.030;38.710;2024-01-15T04:43:05;98058.19;;;-4.69;63.23
74544;BME280;63016;55.030;38.710;2024-01-15T04:45:31;98055.44;;;-4.66;63.28
74544;BME280;63016;55.030;38.710;2024-01-15T04:47:56;98047.78;;;-4.66;63.25
74544;BME280;63016;55.030;38.710;2024-01-15T04:50:23;98058.69;;;-4.64;63.28
74544;BME280;63016;55.030;38.710;2024-01-15T04:52:49;98054.28;;;-4.62;63.30
74544;BME280;63016;55.030;38.710;2024-01-15T04:55:14;98060.03;;;-4.60;63.35
74544;BME280;63016;55.030;38.710;2024-01-15T04:57:40;98065.84;;;-4.58;63.15
74544;BME280;63016;55.030;38.710;2024-01-15T05:00:06;98063.31;;;-4.58;63.38
74544;BME280;63016;55.030;38.710;2024-01-15T05:02:31;98059.59;;;-4.54;63.74
74544;BME280;63016;55.030;38.710;2024-01-15T05:04:57;98060.16;;;-4.50;63.50
74544;BME280;63016;55.030;38.710;2024-01-15T05:07:22;98066.78;;;-4.48;63.49
74544;BME280;63016;55.030;38.710;2024-01-15T05:09:47;98064.91;;;-4.46;63.04
74544;BME280;63016;55.030;38.710;2024-01-15T05:12:13;98064.00;;;-4.45;63.44
74544;BME280;63016;55.030;38.710;2024-01-15T05:14:38;98063.75;;;-4.42;63.44
74544;BME280;63016;55.030;38.710;2024-01-15T05:17:04;98055.09;;;-4.39;63.46
74544;BME280;63016;55.030;38.710;2024-01-15T05:19:29;98058.31;;;-4.37;63.58
74544;BME280;63016;55.030;38.710;2024-01-15T05:21:54;98057.28;;;-4.34;63.63
74544;BME280;63016;55.030;38.710;2024-01-15T05:24:20;98053.00;;;-4.34;63.44
74544;BME280;63016;55.030;38.710;2024-01-15T05:26:45;98057.84;;;-4.31;63.31
74544;BME280;63016;55.030;38.710;2024-01-15T05:29:10;98059.59;;;-4.31;63.38
74544;BME280;63016;55.030;38.710;2024-01-15T05:31:36;98051.94;;;-4.31;63.29
74544;BME280;63016;55.030;38.710;2024-01-15T05:34:01;98044.22;;;-4.30;63.64
74544;BME280;63016;55.030;38.710;2024-01-15T05:36:27;98048.25;;;-4.27;63.29
74544;BME280;63016;55.030;38.710;2024-01-15T05:38:52;98060.03;;;-4.26;63.48
74544;BME280;63016;55.030;38.710;2024-01-15T05:41:17;98059.94;;;-4.25;63.14
74544;BME280;63016;55.030;38.710;2024-01-15T05:43:43;98055.53;;;-4.23;63.40
74544;BME280;63016;55.030;38.710;2024-01-15T05:46:08;98057.94;;;-4.21;63.71
74544;BME280;63016;55.030;38.710;2024-01-15T05:48:34;98057.94;;;-4.21;63.42
74544;BME280;63016;55.030;38.710;2024-01-15T05:50:59;98058.66;;;-4.19;63.67
74544;BME280;63016;55.030;38.710;2024-01-15T05:53:24;98059.47;;;-4.19;63.74
74544;BME280;63016;55.030;38.710;2024-01-15T05:55:50;98064.34;;;-4.16;63.96
74544;BME280;63016;55.030;38.710;2024-01-15T05:58:15;98062.34;;;-4.12;63.74
74544;BME280;63016;55.030;38.710;2024-01-15T06:00:40;98068.00;;;-4.08;63.61
74544;BME280;63016;55.030;38.710;2024-01-15T06:03:06;98056.78;;;-4.06;63.53
74544;BME280;63016;55.030;38.710;2024-01-15T06:05:31;98060.25;;;-4.07;63.33
74544;BME280;63016;55.030;38.710;2024-01-15T06:07:57;98065.34;;;-4.07;63.60
74544;BME280;63016;55.030;38.710;2024-01-15T06:10:22;98059.09;;;-4.03;63.24
74544;BME280;63016;55.030;38.710;2024-01-15T06:12:47;98053.84;;;-4.01;63.54
74544;BME280;63016;55.030;38.710;2024-01-15T06:15:13;98053.84;;;-4.01;63.53
74544;BME280;63016;55.030;38.710;2024-01-15T06:17:38;98058.94;;;-4.01;64.02
74544;BME280;63016;55.030;38.710;2024-01-15T06:20:04;98052.03;;;-3.99;63.74
74544;BME280;63016;55.030;38.710;2024-01-15T06:22:30;98057.69;;;-3.96;63.76
74544;BME280;63016;55.030;38.710;2024-01-15T06:24:55;98058.38;;;-3.94;63.73
74544;BME280;63016;55.030;38.710;2024-01-15T06:27:21;98060.78;;;-3.92;63.90
74544;BME280;63016;55.030;38.710;2024-01-15T06:29:46;98069.94;;;-3.90;63.12
74544;BME280;63016;55.030;38.710;2024-01-15T06:32:12;98057.22;;;-3.90;63.36
74544;BME280;63016;55.030;38.710;2024-01-15T06:34:37;98064.63;;;-3.86;64.04
74544;BME280;63016;55.030;38.710;2024-01-15T06:37:03;98064.38;;;-3.83;63.41
74544;BME280;63016;55.030;38.710;2024-01-15T06:39:28;98059.84;;;-3.80;64.37
74544;BME280;63016;55.030;38.710;2024-01-15T06:41:53;98061.31;;;-3.77;64.32
74544;BME280;63016;55.030;38.710;2024-01-15T06:44:19;98063.66;;;-3.74;63.79
74544;BME280;63016;55.030;38.710;2024-01-15T06:46:46;98058.41;;;-3.73;64.08
74544;BME280;63016;55.030;38.710;2024-01-15T06:49:12;98064.91;;;-3.69;64.33
74544;BME280;63016;55.030;38.710;2024-01-15T06:51:37;98066.41;;;-3.66;63.83
74544;BME280;63016;55.030;38.710;2024-01-15T06:54:03;98061.75;;;-3.61;63.57
74544;BME280;63016;55.030;38.710;2024-01-15T06:56:29;98062.44;;;-3.59;63.59
74544;BME280;63016;55.030;38.710;2024-01-15T06:58:54;98062.34;;;-3.57;64.17
74544;BME280;63016;55.030;38.710;2024-01-15T07:01:19;98064.53;;;-3.53;63.85
74544;BME280;63016;55.030;38.710;2024-01-15T07:03:45;98065.06;;;-3.49;64.00
74544;BME280;63016;55.030;38.710;2024-01-15T07:06:10;98062.06;;;-3.43;64.17
74544;BME280;63016;55.030;38.710;2024-01-15T07:08:36;98071.03;;;-3.39;64.07
74544;BME280;63016;55.030;38.710;2024-01-15T07:11:05;98071.63;;;-3.36;63.83
74544;BME280;63016;55.030;38.710;2024-01-15T07:13:30;98069.63;;;-3.32;64.14
74544;BME280;63016;55.030;38.710;2024-01-15T07:15:56;98052.47;;;-3.30;63.80
74544;BME280;63016;55.030;38.710;2024-01-15T07:18:21;98062.28;;;-3.25;64.72
74544;BME280;63016;55.030;38.710;2024-01-15T07:20:47;98069.44;;;-3.19;64.51
74544;BME280;63016;55.030;38.710;2024-01-15T07:23:12;98064.91;;;-3.16;63.95
74544;BME280;63016;55.030;38.710;2024-01-15T07:25:41;98063.97;;;-3.15;64.39
74544;BME280;63016;55.030;38.710;2024-01-15T07:28:06;98062.13;;;-3.13;64.62
74544;BME280;63016;55.030;38.710;2024-01-15T07:30:32;98062.69;;;-3.09;64.29
74544;BME280;63016;55.030;38.710;2024-01-15T07:33:12;98067.53;;;-3.06;63.90
74544;BME280;63016;55.030;38.710;2024-01-15T07:35:37;98074.25;;;-3.05;64.00
74544;BME280;63016;55.030;38.710;2024-01-15T07:38:03;98064.59;;;-3.01;64.09
74544;BME280;63016;55.030;38.710;2024-01-15T07:40:28;98057.38;;;-2.96;63.81
74544;BME280;63016;55.030;38.710;2024-01-15T07:42:54;98067.09;;;-2.90;64.23
74544;BME280;63016;55.030;38.710;2024-01-15T07:45:19;98070.19;;;-2.87;64.82
74544;BME280;63016;55.030;38.710;2024-01-15T07:47:44;98062.03;;;-2.80;64.97
74544;BME280;63016;55.030;38.710;2024-01-15T07:50:10;98074.31;;;-2.74;64.43
74544;BME280;63016;55.030;38.710;2024-01-15T07:52:35;98070.44;;;-2.69;64.84
74544;BME280;63016;55.030;38.710;2024-01-15T07:55:01;98064.94;;;-2.64;64.67
74544;BME280;63016;55.030;38.710;2024-01-15T07:57:28;98072.09;;;-2.58;64.27
74544;BME280;63016;55.030;38.710;2024-01-15T07:59:54;98066.75;;;-2.55;64.66
74544;BME280;63016;55.030;38.710;2024-01-15T08:02:19;98067.16;;;-2.50;65.03
74544;BME280;63016;55.030;38.710;2024-01-15T08:04:44;98072.44;;;-2.42;64.94
74544;BME280;63016;55.030;38.710;2024-01-15T08:07:11;98066.13;;;-2.38;64.73
74544;BME280;63016;55.030;38.710;2024-01-15T08:09:36;98065.88;;;-2.35;64.26
74544;BME280;63016;55.030;38.710;2024-01-15T08:12:02;98069.00;;;-2.31;64.57
74544;BME280;63016;55.030;38.710;2024-01-15T08:14:27;98072.06;;;-2.27;64.66
74544;BME280;63016;55.030;38.710;2024-01-15T08:16:52;98070.22;;;-2.25;64.01
74544;BME280;63016;55.030;38.710;2024-01-15T08:19:18;98078.53;;;-2.23;64.20
74544;BME280;63016;55.030;38.710;2024-01-15T08:21:45;98072.38;;;-2.21;65.09
74544;BME280;63016;55.030;38.710;2024-01-15T08:24:10;98076.97;;;-2.15;64.16
74544;BME280;63016;55.030;38.710;2024-01-15T08:26:36;98084.25;;;-2.10;65.46
74544;BME280;63016;55.030;38.710;2024-01-15T08:29:01;98073.38;;;-2.02;65.25
74544;BME280;63016;55.030;38.710;2024-01-15T08:31:26;98073.66;;;-1.96;65.11
74544;BME280;63016;55.030;38.710;2024-01-15T08:33:52;98075.56;;;-1.88;64.57
74544;BME280;63016;55.030;38.710;2024-01-15T08:36:18;98074.91;;;-1.81;64.95
74544;BME280;63016;55.030;38.710;2024-01-15T08:38:43;98070.09;;;-1.25;68.06
74544;BME280;63016;55.030;38.710;2024-01-15T08:41:08;98075.31;;;-0.98;65.96
74544;BME280;63016;55.030;38.710;2024-01-15T08:43:34;98073.28;;;-0.94;65.12
74544;BME280;63016;55.030;38.710;2024-01-15T08:45:59;98074.78;;;-0.92;65.51
74544;BME280;63016;55.030;38.710;2024-01-15T08:48:25;98069.38;;;-0.89;65.38
74544;BME280;63016;55.030;38.710;2024-01-15T08:50:52;98082.03;;;-0.87;64.91
74544;BME280;63016;55.030;38.710;2024-01-15T08:53:18;98077.31;;;-0.82;64.93
74544;BME280;63016;55.030;38.710;2024-01-15T08:55:43;98068.53;;;-0.80;65.03
74544;BME280;63016;55.030;38.710;2024-01-15T08:58:09;98066.53;;;-0.76;65.53
74544;BME280;63016;55.030;38.710;2024-01-15T09:00:35;98067.97;;;-0.73;64.79
74544;BME280;63016;55.030;38.710;2024-01-15T09:03:00;98064.50;;;-0.72;65.42
74544;BME280;63016;55.030;38.710;2024-01-15T09:05:25;98052.91;;;-0.76;65.44
74544;BME280;63016;55.030;38.710;2024-01-15T09:07:51;98068.75;;;-0.63;65.35
74544;BME280;63016;55.030;38.710;2024-01-15T09:10:17;98065.78;;;-0.59;64.81
74544;BME280;63016;55.030;38.710;2024-01-15T09:12:42;98071.44;;;-0.55;64.72
74544;BME280;63016;55.030;38.710;2024-01-15T09:15:08;98067.13;;;-0.55;64.76
74544;BME280;63016;55.030;38.710;2024-01-15T09:17:33;98063.34;;;-0.50;65.21
74544;BME280;63016;55.030;38.710;2024-01-15T09:19:58;98063.72;;;-0.45;65.36
74544;BME280;63016;55.030;38.710;2024-01-15T09:22:24;98064.91;;;-0.40;65.45
74544;BME280;63016;55.030;38.710;2024-01-15T09:24:49;98064.38;;;-0.34;65.06
74544;BME280;63016;55.030;38.710;2024-01-15T09:27:15;98062.31;;;-0.30;65.88
74544;BME280;63016;55.030;38.710;2024-01-15T09:29:40;98060.13;;;-0.25;65.92
74544;BME280;63016;55.030;38.710;2024-01-15T09:32:07;98060.50;;;-0.20;65.75
74544;BME280;63016;55.030;38.710;2024-01-15T09:34:33;98057.50;;;-0.15;65.39
74544;BME280;63016;55.030;38.710;2024-01-15T09:36:58;98063.97;;;-0.11;65.29
74544;BME280;63016;55.030;38.710;2024-01-15T09:39:25;98063.38;;;-0.05;66.17
74544;BME280;63016;55.030;38.710;2024-01-15T09:41:51;98057.03;;;-0.01;65.40
74544;BME280;63016;55.030;38.710;2024-01-15T09:44:17;98064.44;;;0.02;65.34
74544;BME280;63016;55.030;38.710;2024-01-15T09:46:42;98063.59;;;0.11;66.06
74544;BME280;63016;55.030;38.710;2024-01-15T09:49:09;98067.97;;;0.19;66.00
74544;BME280;63016;55.030;38.710;2024-01-15T09:51:35;98060.28;;;0.19;65.23
74544;BME280;63016;55.030;38.710;2024-01-15T09:54:01;98058.56;;;0.19;65.65
74544;BME280;63016;55.030;38.710;2024-01-15T09:56:27;98051.50;;;0.21;65.65
74544;BME280;63016;55.030;38.710;2024-01-15T09:58:52;98059.19;;;0.21;64.93
74544;BME280;63016;55.030;38.710;2024-01-15T10:01:18;98055.69;;;0.22;65.70
74544;BME280;63016;55.030;38.710;2024-01-15T10:03:45;98059.84;;;0.23;65.22
74544;BME280;63016;55.030;38.710;2024-01-15T10:06:10;98058.94;;;0.24;65.72
74544;BME280;63016;55.030;38.710;2024-01-15T10:08:36;98057.81;;;0.27;65.67
74544;BME280;63016;55.030;38.710;2024-01-15T10:11:02;98059.13;;;0.31;65.81
74544;BME280;63016;55.030;38.710;2024-01-15T10:13:30;98050.31;;;0.34;65.36
74544;BME280;63016;55.030;38.710;2024-01-15T10:15:55;98054.22;;;0.38;64.94
74544;BME280;63016;55.030;38.710;2024-01-15T10:18:21;98051.97;;;0.35;65.08
74544;BME280;63016;55.030;38.710;2024-01-15T10:20:46;98054.53;;;0.35;65.13
74544;BME280;63016;55.030;38.710;2024-01-15T10:23:12;98056.66;;;0.39;66.19
74544;BME280;63016;55.030;38.710;2024-01-15T10:25:39;98057.97;;;0.79;68.09
74544;BME280;63016;55.030;38.710;2024-01-15T10:28:06;98049.91;;;1.00;67.33
74544;BME280;63016;55.030;38.710;2024-01-15T10:30:32;98055.31;;;1.15;66.55
74544;BME280;63016;55.030;38.710;2024-01-15T10:33:00;98047.47;;;1.16;65.68
74544;BME280;63016;55.030;38.710;2024-01-15T10:35:27;98049.97;;;1.08;65.17
74544;BME280;63016;55.030;38.710;2024-01-15T10:37:52;98047.88;;;1.03;65.28
74544;BME280;63016;55.030;38.710;2024-01-15T10:40:18;98048.03;;;1.02;66.06
74544;BME280;63016;55.030;38.710;2024-01-15T10:42:44;98052.19;;;1.03;65.67
74544;BME280;63016;55.030;38.710;2024-01-15T10:45:09;98046.25;;;1.02;66.54
74544;BME280;63016;55.030;38.710;2024-01-15T10:47:34;98040.34;;;1.10;66.44
74544;BME280;63016;55.030;38.710;2024-01-15T10:50:00;98039.78;;;1.16;65.82
74544;BME280;63016;55.030;38.710;2024-01-15T10:52:27;98036.88;;;1.19;65.58
74544;BME280;63016;55.030;38.710;2024-01-15T10:54:53;98034.31;;;1.19;65.23
74544;BME280;63016;55.030;38.710;2024-01-15T10:57:19;98029.34;;;1.18;65.45
74544;BME280;63016;55.030;38.710;2024-01-15T10:59:46;98032.53;;;1.12;64.84
74544;BME280;63016;55.030;38.710;2024-01-15T11:02:12;98027.47;;;1.02;64.90
74544;BME280;63016;55.030;38.710;2024-01-15T11:04:38;98026.75;;;0.92;64.74
74544;BME280;63016;55.030;38.710;2024-01-15T11:07:03;98024.94;;;0.84;65.18
74544;BME280;63016;55.030;38.710;2024-01-15T11:09:30;98024.44;;;0.81;64.96
74544;BME280;63016;55.030;38.710;2024-01-15T11:14:34;98023.34;;;0.83;65.53
74544;BME280;63016;55.030;38.710;2024-01-15T11:17:00;98019.81;;;0.84;65.23
74544;BME280;63016;55.030;38.710;2024-01-15T11:19:25;98019.00;;;0.84;65.05
74544;BME280;63016;55.030;38.710;2024-01-15T11:21:51;98010.63;;;0.82;65.00
74544;BME280;63016;55.030;38.710;2024-01-15T11:24:36;98014.16;;;0.81;65.35
74544;BME280;63016;55.030;38.710;2024-01-15T11:27:02;98011.31;;;0.84;65.60
74544;BME280;63016;55.030;38.710;2024-01-15T11:34:21;98015.75;;;0.82;65.14
74544;BME280;63016;55.030;38.710;2024-01-15T11:37:06;98003.91;;;0.81;64.84
74544;BME280;63016;55.030;38.710;2024-01-15T11:41:58;98001.25;;;0.72;65.21
74544;BME280;63016;55.030;38.710;2024-01-15T11:44:24;97994.97;;;0.67;65.29
74544;BME280;63016;55.030;38.710;2024-01-15T11:47:02;98009.88;;;0.63;65.19
74544;BME280;63016;55.030;38.710;2024-01-15T11:52:02;98007.25;;;0.55;64.90
74544;BME280;63016;55.030;38.710;2024-01-15T11:54:30;98011.69;;;0.53;65.38
74544;BME280;63016;55.030;38.710;2024-01-15T11:56:57;98020.50;;;0.50;64.80
74544;BME280;63016;55.030;38.710;2024-01-15T11:59:24;98015.00;;;0.45;65.10
74544;BME280;63016;55.030;38.710;2024-01-15T12:01:50;98018.03;;;0.41;64.44
74544;BME280;63016;55.030;38.710;2024-01-15T12:04:15;98016.84;;;0.35;64.52
74544;BME280;63016;55.030;38.710;2024-01-15T12:06:42;98017.28;;;0.31;65.16
74544;BME280;63016;55.030;38.710;2024-01-15T12:09:08;98016.63;;;0.29;65.42
74544;BME280;63016;55.030;38.710;2024-01-15T12:11:34;98022.06;;;0.25;64.51
74544;BME280;63016;55.030;38.710;2024-01-15T12:14:01;98021.38;;;0.23;65.27
74544;BME280;63016;55.030;38.710;2024-01-15T12:16:26;98018.16;;;0.21;64.65
74544;BME280;63016;55.030;38.710;2024-01-15T12:18:51;98022.34;;;0.22;65.19
74544;BME280;63016;55.030;38.710;2024-01-15T12:21:17;98019.13;;;0.20;64.44
74544;BME280;63016;55.030;38.710;2024-01-15T12:23:45;98022.94;;;0.16;65.03
74544;BME280;63016;55.030;38.710;2024-01-15T12:26:11;98027.53;;;0.13;64.99
74544;BME280;63016;55.030;38.710;2024-01-15T12:28:36;98023.38;;;0.12;65.13
74544;BME280;63016;55.030;38.710;2024-01-15T12:31:02;98021.06;;;0.09;65.08
74544;BME280;63016;55.030;38.710;2024-01-15T12:33:30;98019.63;;;0.06;64.58
74544;BME280;63016;55.030;38.710;2024-01-15T12:35:55;98016.25;;;0.06;65.07
74544;BME280;63016;55.030;38.710;2024-01-15T12:38:21;98023.28;;;0.04;64.53
74544;BME280;63016;55.030;38.710;2024-01-15T12:40:46;98027.91;;;0.00;64.61
74544;BME280;63016;55.030;38.710;2024-01-15T12:43:12;98021.00;;;0.01;64.80
74544;BME280;63016;55.030;38.710;2024-01-15T12:45:37;98027.59;;;0.03;65.47
74544;BME280;63016;55.030;38.710;2024-01-15T12:48:05;98028.56;;;0.02;64.70
74544;BME280;63016;55.030;38.710;2024-01-15T12:50:31;98015.09;;;0.00;65.24
74544;BME280;63016;55.030;38.710;2024-01-15T12:52:58;98028.41;;;0.04;66.25
74544;BME280;63016;55.030;38.710;2024-01-15T12:55:24;98023.72;;;0.17;66.63
74544;BME280;63016;55.030;38.710;2024-01-15T12:57:50;98029.59;;;0.27;66.10